This is the latest recevied weather packets stored in our database for station/object KB3FKJ. If no packets are shown the sender has not sent any weather packets the latest 1 day(s).
| Time | Temp. | Humidity | Pressure | Rain* | Wind** | Luminosity | Snow |
|---|---|---|---|---|---|---|---|
| 1778033211 | 16.67° C | 67% | 1007.7 hPa | 0 mm | - | 0 W/m² | - |
| 1778032606 | 17.22° C | 66% | 1007.6 hPa | 0 mm | - | 0 W/m² | - |
| 1778032303 | 17.22° C | 67% | 1007.6 hPa | 0 mm | - | 0 W/m² | - |
| 1778032000 | 16.67° C | 71% | 1007.7 hPa | 0 mm | - | 0 W/m² | - |
| 1778031696 | 16.67° C | 73% | 1007.6 hPa | 0 mm | - | 0 W/m² | - |
| 1778031394 | 17.22° C | 70% | 1007.4 hPa | 0 mm | - | 0 W/m² | - |
| 1778030787 | 17.78° C | 68% | 1007.4 hPa | 0 mm | - | 0 W/m² | - |
| 1778030484 | 18.33° C | 66% | 1007.5 hPa | 0 mm | - | 0 W/m² | - |
| 1778030182 | 18.33° C | 66% | 1007.5 hPa | 0 mm | - | 0 W/m² | - |
| 1778029878 | 18.33° C | 66% | 1007.3 hPa | 0 mm | - | 0 W/m² | - |
| 1778029572 | 18.33° C | 66% | 1007.4 hPa | 0 mm | - | 0 W/m² | - |
| 1778028662 | 18.89° C | 66% | 1007.3 hPa | 0 mm | - | 0 W/m² | - |
| 1778028359 | 18.33° C | 66% | 1007.4 hPa | 0 mm | - | 0 W/m² | - |
| 1778027448 | 17.78° C | 71% | 1007.3 hPa | 0 mm | - | 0 W/m² | - |
| 1778027144 | 18.33° C | 71% | 1007.3 hPa | 0 mm | - | 0 W/m² | - |
| 1778026840 | 18.33° C | 68% | 1007.3 hPa | 0 mm | - | 1 W/m² | - |
| 1778026234 | 18.89° C | 68% | 1007.2 hPa | 0 mm | - | 2 W/m² | - |
| 1778022299 | 20.56° C | 65% | 1006.8 hPa | 0 mm | - | 27 W/m² | - |
| 1778021995 | 20.56° C | 62% | 1006.8 hPa | 0 mm | - | 35 W/m² | - |
| 1778020176 | 20.56° C | 66% | 1007.1 hPa | 0 mm | - | 45 W/m² | - |
| 1778019266 | 20° C | 73% | 1007.3 hPa | 0 mm | - | 30 W/m² | - |
| 1778018357 | 20.56° C | 74% | 1006.9 hPa | 0 mm | - | 118 W/m² | - |
| 1778017753 | 19.44° C | 81% | 1007.2 hPa | 0 mm | - | 95 W/m² | - |
* Rain latest hour (hover to see other rain measurements)
** Current wind speed in m/s (hover to see current wind gust speed)